Time;durP1;ratioP1;P1;durP2;ratioP2;P2;SDS_P1;SDS_P2;PMS_P1;PMS_P2;Temp;Humidity;BMP_temperature;BMP_pressure;BME280_temperature;BME280_humidity;BME280_pressure;Samples;Min_cycle;Max_cycle;Signal;HPM_P1;HPM_P2
2021/09/11 00:01:48;;;;;;;5.47;2.87;;;18.70;90.70;;;;;;5052335;28;20397;-94
2021/09/11 00:04:14;;;;;;;5.13;3.10;;;18.70;91.00;;;;;;5039023;28;20473;-92
2021/09/11 00:06:39;;;;;;;4.70;3.08;;;18.70;91.00;;;;;;5041260;28;20777;-92
2021/09/11 00:09:05;;;;;;;6.03;3.10;;;18.70;91.10;;;;;;5041144;28;20476;-92
2021/09/11 00:11:31;;;;;;;4.53;3.13;;;18.60;91.30;;;;;;5040975;28;20411;-92
2021/09/11 00:13:56;;;;;;;8.23;3.47;;;18.60;91.30;;;;;;5041056;28;20404;-95
2021/09/11 00:16:22;;;;;;;7.10;3.40;;;18.60;91.30;;;;;;5041025;28;20943;-93
2021/09/11 00:18:48;;;;;;;6.43;3.67;;;18.60;91.60;;;;;;5041045;28;20392;-94
2021/09/11 00:21:14;;;;;;;8.20;4.03;;;18.60;91.70;;;;;;5041003;28;20391;-92
2021/09/11 00:23:39;;;;;;;6.07;3.50;;;18.50;91.90;;;;;;5040990;28;20854;-94
2021/09/11 00:26:05;;;;;;;9.25;4.43;;;18.50;91.80;;;;;;5058906;28;20374;-95
2021/09/11 00:28:31;;;;;;;9.35;3.72;;;18.40;92.00;;;;;;5040675;28;20837;-94
2021/09/11 00:30:56;;;;;;;8.17;4.37;;;18.50;91.80;;;;;;5040745;28;20612;-94
2021/09/11 00:33:22;;;;;;;7.07;3.80;;;18.40;92.10;;;;;;5040888;28;20385;-93
2021/09/11 00:35:48;;;;;;;7.40;4.03;;;18.50;91.80;;;;;;5040661;28;20740;-93
2021/09/11 00:38:14;;;;;;;6.13;3.78;;;18.50;91.70;;;;;;5040939;28;20818;-94
2021/09/11 00:40:39;;;;;;;8.68;4.30;;;18.60;91.70;;;;;;5040715;28;20476;-95
2021/09/11 00:43:05;;;;;;;8.43;5.00;;;18.60;91.60;;;;;;5040727;28;20403;-93
2021/09/11 00:45:30;;;;;;;12.70;4.60;;;18.50;92.00;;;;;;5041024;28;20466;-93
2021/09/11 00:47:56;;;;;;;6.93;4.47;;;18.50;92.00;;;;;;5041068;28;20400;-93
2021/09/11 00:50:21;;;;;;;9.35;4.10;;;18.50;92.00;;;;;;5040648;28;20435;-92
2021/09/11 00:52:48;;;;;;;6.17;4.70;;;18.50;91.70;;;;;;5040637;28;20448;-93
2021/09/11 00:55:15;;;;;;;10.05;5.30;;;18.50;91.80;;;;;;5040441;28;20477;-93
2021/09/11 00:57:43;;;;;;;7.05;4.57;;;18.40;92.20;;;;;;5040811;28;20400;-92
2021/09/11 01:00:09;;;;;;;7.78;4.38;;;18.30;92.40;;;;;;5040535;28;20867;-93
2021/09/11 01:02:35;;;;;;;12.95;4.95;;;18.30;92.60;;;;;;5040489;28;20487;-94
2021/09/11 01:05:03;;;;;;;9.43;5.17;;;18.30;92.70;;;;;;5040688;28;20462;-95
2021/09/11 01:07:29;;;;;;;11.20;6.05;;;18.30;93.00;;;;;;5040581;28;20408;-93
2021/09/11 01:09:55;;;;;;;10.40;5.33;;;18.30;93.00;;;;;;5040606;28;20994;-93
2021/09/11 01:12:21;;;;;;;8.38;4.95;;;18.30;92.80;;;;;;5040548;28;20437;-94
2021/09/11 01:14:46;;;;;;;8.63;5.13;;;18.40;92.50;;;;;;5038445;28;20432;-93
2021/09/11 01:17:18;;;;;;;8.07;4.70;;;18.40;92.50;;;;;;5037353;28;20445;-92
2021/09/11 01:19:44;;;;;;;10.10;5.00;;;18.30;92.70;;;;;;5037258;28;20390;-93
2021/09/11 01:22:17;;;;;;;8.60;5.37;;;18.40;92.40;;;;;;5037276;28;20399;-92
2021/09/11 01:24:57;;;;;;;11.40;5.45;;;18.40;92.50;;;;;;5037221;28;20460;-92
2021/09/11 01:27:23;;;;;;;10.40;5.35;;;18.30;93.00;;;;;;5037289;28;20398;-93
2021/09/11 01:30:12;;;;;;;8.77;5.68;;;18.30;92.80;;;;;;5036985;28;20413;-92
2021/09/11 01:32:37;;;;;;;9.77;5.50;;;18.30;93.00;;;;;;5036951;28;20419;-92
2021/09/11 01:35:04;;;;;;;9.80;6.33;;;18.30;93.30;;;;;;5037084;28;20393;-92
2021/09/11 01:37:30;;;;;;;10.48;6.18;;;18.30;93.40;;;;;;5036989;28;20809;-93
2021/09/11 01:39:55;;;;;;;9.10;6.05;;;18.30;93.50;;;;;;5036976;28;20382;-93
2021/09/11 01:42:26;;;;;;;12.20;6.20;;;18.20;93.70;;;;;;5036976;28;20502;-95
2021/09/11 01:44:53;;;;;;;8.77;6.27;;;18.30;93.50;;;;;;5054525;28;20378;-91
2021/09/11 01:47:19;;;;;;;11.68;7.20;;;18.20;93.70;;;;;;5036808;28;20977;-92
2021/09/11 01:49:45;;;;;;;12.07;6.80;;;18.30;93.60;;;;;;5036798;28;20469;-91
2021/09/11 01:52:11;;;;;;;10.50;6.03;;;18.30;93.60;;;;;;5037063;28;20501;-92
2021/09/11 01:54:38;;;;;;;10.57;6.13;;;18.30;93.60;;;;;;5037019;28;20462;-92
2021/09/11 01:57:10;;;;;;;9.68;7.20;;;18.30;93.10;;;;;;5054716;28;20409;-94
2021/09/11 01:59:36;;;;;;;14.68;8.27;;;18.30;93.60;;;;;;5036596;28;20390;-92
2021/09/11 02:02:02;;;;;;;18.63;9.82;;;18.20;94.00;;;;;;5036504;28;20385;-94
2021/09/11 02:04:28;;;;;;;18.00;9.55;;;18.10;94.20;;;;;;5036318;28;20390;-93
2021/09/11 02:06:53;;;;;;;15.70;11.23;;;18.10;94.30;;;;;;5036444;28;20400;-94
2021/09/11 02:09:19;;;;;;;19.15;12.00;;;18.10;94.20;;;;;;5036355;28;20742;-93
2021/09/11 02:11:45;;;;;;;21.85;12.27;;;18.20;94.00;;;;;;5036337;28;20425;-93
2021/09/11 02:14:10;;;;;;;18.30;12.50;;;18.10;94.20;;;;;;5036383;28;20392;-94
2021/09/11 02:16:36;;;;;;;15.88;12.95;;;18.10;94.30;;;;;;5036466;28;20421;-93
2021/09/11 02:19:02;;;;;;;19.50;13.77;;;18.20;94.30;;;;;;5036400;28;20405;-92
2021/09/11 02:21:27;;;;;;;20.95;14.25;;;18.20;94.00;;;;;;5036474;28;20472;-92
2021/09/11 02:23:53;;;;;;;22.27;14.52;;;18.20;94.20;;;;;;5036315;28;20400;-93
2021/09/11 02:26:18;;;;;;;19.10;14.57;;;18.20;94.20;;;;;;5035363;28;20716;-93
2021/09/11 02:28:44;;;;;;;21.92;13.63;;;18.20;94.10;;;;;;5053299;28;20511;-94
2021/09/11 02:31:10;;;;;;;17.87;14.33;;;18.20;94.00;;;;;;5053784;28;20453;-93
2021/09/11 02:33:37;;;;;;;20.67;15.23;;;18.10;94.10;;;;;;5036294;28;20393;-96
2021/09/11 02:36:03;;;;;;;28.58;16.33;;;18.20;94.10;;;;;;5036047;28;20883;-93
2021/09/11 02:38:29;;;;;;;24.10;16.60;;;18.10;94.30;;;;;;5036150;28;20401;-95
2021/09/11 02:40:54;;;;;;;25.30;17.55;;;18.10;94.30;;;;;;5035740;28;20401;-93
2021/09/11 02:43:20;;;;;;;29.97;18.80;;;18.00;94.60;;;;;;5035697;28;20791;-93
2021/09/11 02:45:45;;;;;;;28.77;18.73;;;18.00;94.50;;;;;;5035560;28;20389;-92
2021/09/11 02:48:11;;;;;;;24.73;18.17;;;18.00;94.60;;;;;;5035815;28;20476;-92
2021/09/11 02:50:37;;;;;;;25.53;18.77;;;18.00;94.50;;;;;;5035651;28;20397;-92
2021/09/11 02:53:02;;;;;;;31.65;18.77;;;18.10;94.20;;;;;;5035428;28;20502;-91
2021/09/11 02:55:28;;;;;;;28.03;18.50;;;18.10;94.20;;;;;;5035199;28;20492;-92
2021/09/11 02:57:53;;;;;;;25.45;17.65;;;18.10;93.80;;;;;;5035612;28;20397;-92
2021/09/11 03:00:19;;;;;;;32.90;18.80;;;18.20;93.80;;;;;;5035864;28;20391;-91
2021/09/11 03:02:45;;;;;;;27.33;18.45;;;18.10;93.70;;;;;;5035467;28;20883;-91
2021/09/11 03:05:11;;;;;;;31.83;20.65;;;18.20;93.50;;;;;;5035253;28;20426;-91
2021/09/11 03:07:37;;;;;;;28.38;19.85;;;18.20;93.50;;;;;;5035405;28;20428;-95
2021/09/11 03:10:03;;;;;;;35.97;21.63;;;18.10;94.00;;;;;;5035217;28;20394;-92
2021/09/11 03:12:28;;;;;;;33.63;19.97;;;18.10;93.90;;;;;;5035003;28;20440;-93
2021/09/11 03:14:54;;;;;;;37.10;22.52;;;18.10;93.70;;;;;;5035731;28;20732;-93
2021/09/11 03:17:19;;;;;;;32.23;20.43;;;18.00;93.90;;;;;;5034938;28;20443;-91
2021/09/11 03:19:45;;;;;;;33.00;20.92;;;18.10;93.80;;;;;;5035095;28;20447;-92
2021/09/11 03:22:10;;;;;;;37.60;23.13;;;18.10;93.60;;;;;;5034761;28;20401;-92
2021/09/11 03:24:36;;;;;;;39.22;23.02;;;18.10;93.50;;;;;;5035313;28;20389;-92
2021/09/11 03:27:01;;;;;;;35.67;22.07;;;18.10;93.60;;;;;;5034844;28;20400;-91
2021/09/11 03:29:27;;;;;;;33.70;20.33;;;18.20;93.20;;;;;;5034917;28;20388;-91
2021/09/11 03:31:53;;;;;;;34.05;21.08;;;18.30;92.90;;;;;;5034777;28;20401;-92
2021/09/11 03:34:18;;;;;;;37.37;23.40;;;18.20;93.10;;;;;;5034793;28;20405;-92
2021/09/11 03:36:44;;;;;;;35.75;21.90;;;18.10;93.10;;;;;;5034612;28;20393;-90
2021/09/11 03:39:09;;;;;;;36.20;22.03;;;18.00;93.30;;;;;;5034491;28;20385;-91
2021/09/11 03:41:35;;;;;;;31.00;21.70;;;18.10;93.20;;;;;;5034860;28;20400;-91
2021/09/11 03:44:00;;;;;;;42.20;24.30;;;18.10;93.10;;;;;;5034764;28;20386;-91
2021/09/11 03:46:26;;;;;;;41.10;25.65;;;18.00;93.40;;;;;;5035013;28;20393;-92
2021/09/11 03:48:51;;;;;;;33.40;21.50;;;18.00;93.40;;;;;;5034632;28;20389;-92
2021/09/11 03:51:17;;;;;;;36.50;24.37;;;18.10;93.20;;;;;;5052604;28;20495;-92
2021/09/11 03:53:43;;;;;;;41.23;25.77;;;18.10;93.30;;;;;;5034533;28;20396;-92
2021/09/11 03:56:08;;;;;;;38.27;23.53;;;18.10;93.20;;;;;;5034415;28;20506;-93
2021/09/11 03:58:34;;;;;;;37.38;23.65;;;18.10;93.20;;;;;;5034602;28;20397;-93
2021/09/11 04:01:01;;;;;;;41.30;26.23;;;18.10;93.20;;;;;;5034502;28;20407;-93
2021/09/11 04:03:28;;;;;;;43.30;25.83;;;18.00;93.30;;;;;;5034614;28;20386;-91
2021/09/11 04:05:53;;;;;;;39.97;25.65;;;18.10;93.40;;;;;;5034589;28;20397;-92
2021/09/11 04:08:19;;;;;;;46.33;27.95;;;18.10;93.00;;;;;;5034394;28;20386;-92
2021/09/11 04:10:45;;;;;;;45.80;25.83;;;18.00;93.30;;;;;;5034414;28;20394;-91
2021/09/11 04:13:10;;;;;;;47.70;27.90;;;18.10;93.20;;;;;;5034559;28;20761;-92
2021/09/11 04:15:36;;;;;;;36.83;24.05;;;18.00;93.30;;;;;;5034348;28;20386;-92
2021/09/11 04:18:03;;;;;;;41.33;26.80;;;18.10;93.20;;;;;;5034205;28;20397;-92
2021/09/11 04:20:28;;;;;;;46.75;26.73;;;18.10;93.10;;;;;;5052052;28;20416;-92
2021/09/11 04:22:54;;;;;;;44.60;27.48;;;18.00;93.40;;;;;;5034354;28;20394;-92
2021/09/11 04:25:20;;;;;;;44.37;27.67;;;17.90;93.40;;;;;;5034251;28;20381;-93
2021/09/11 04:27:45;;;;;;;46.83;27.67;;;17.90;93.60;;;;;;5033857;28;20939;-92
2021/09/11 04:30:11;;;;;;;49.30;29.77;;;17.90;93.40;;;;;;5033877;28;20389;-92
2021/09/11 04:32:37;;;;;;;46.10;27.00;;;17.90;93.70;;;;;;5032118;28;20887;-92
2021/09/11 04:35:03;;;;;;;45.47;26.60;;;17.90;93.80;;;;;;5051973;28;20396;-93
2021/09/11 04:37:29;;;;;;;44.08;26.58;;;17.90;93.50;;;;;;5034116;28;20389;-92
2021/09/11 04:39:54;;;;;;;44.03;26.05;;;17.90;93.60;;;;;;5034035;28;20395;-92
2021/09/11 04:42:21;;;;;;;47.13;27.53;;;17.90;93.60;;;;;;5051654;28;20389;-92
2021/09/11 04:44:46;;;;;;;46.10;27.30;;;17.90;93.40;;;;;;5033783;28;20472;-91
2021/09/11 04:47:12;;;;;;;49.10;27.93;;;17.80;93.90;;;;;;5030588;28;20478;-93
2021/09/11 04:49:38;;;;;;;44.60;27.42;;;17.70;94.30;;;;;;5014237;28;20752;-92
2021/09/11 04:52:05;;;;;;;48.30;28.45;;;17.70;94.20;;;;;;5018032;28;20415;-93
2021/09/11 04:54:30;;;;;;;45.80;27.77;;;17.80;93.80;;;;;;5035056;28;20453;-93
2021/09/11 04:56:56;;;;;;;46.67;27.57;;;17.60;94.10;;;;;;5017968;28;20395;-92
2021/09/11 04:59:21;;;;;;;45.85;26.98;;;17.50;94.30;;;;;;5017969;28;20449;-93
2021/09/11 05:01:47;;;;;;;44.93;27.50;;;17.60;94.20;;;;;;5035586;28;20720;-92
2021/09/11 05:04:12;;;;;;;41.70;26.43;;;17.60;93.90;;;;;;5035330;28;20379;-92
2021/09/11 05:06:38;;;;;;;42.50;26.13;;;17.60;93.50;;;;;;5017909;28;20387;-90
2021/09/11 05:09:04;;;;;;;42.20;25.83;;;17.60;93.80;;;;;;5017819;28;20391;-90
2021/09/11 05:11:29;;;;;;;41.47;24.88;;;17.60;93.90;;;;;;5017740;28;20415;-93
2021/09/11 05:13:55;;;;;;;36.17;22.43;;;17.40;93.90;;;;;;5017767;28;20450;-93
2021/09/11 05:16:20;;;;;;;35.70;22.75;;;17.30;93.20;;;;;;5017788;28;20387;-93
2021/09/11 05:18:46;;;;;;;35.80;21.60;;;17.40;93.60;;;;;;5017665;28;20399;-94
2021/09/11 05:21:11;;;;;;;32.90;20.90;;;17.30;93.90;;;;;;5017172;28;20391;-92
2021/09/11 05:23:37;;;;;;;30.50;18.52;;;17.40;93.70;;;;;;5017511;28;20379;-92
2021/09/11 05:26:04;;;;;;;26.97;16.77;;;17.40;93.20;;;;;;5017192;28;20918;-91
2021/09/11 05:28:29;;;;;;;27.30;16.65;;;17.30;93.10;;;;;;5017547;28;20395;-91
2021/09/11 05:30:55;;;;;;;23.95;15.60;;;17.20;92.80;;;;;;5017529;28;20469;-92
2021/09/11 05:33:21;;;;;;;21.90;14.30;;;17.30;93.10;;;;;;5017734;28;20395;-94
2021/09/11 05:35:46;;;;;;;23.75;13.25;;;17.20;92.80;;;;;;5017516;28;20888;-93
2021/09/11 05:38:12;;;;;;;23.13;13.00;;;17.00;92.60;;;;;;5035372;28;20395;-93
2021/09/11 05:40:37;;;;;;;19.37;12.33;;;17.00;92.90;;;;;;5017178;28;20407;-92
2021/09/11 05:43:03;;;;;;;17.85;12.30;;;17.10;92.60;;;;;;5035106;28;20430;-95
2021/09/11 05:45:29;;;;;;;20.17;12.37;;;17.20;92.60;;;;;;5017095;28;20387;-92
2021/09/11 05:47:54;;;;;;;19.20;12.55;;;17.20;92.50;;;;;;5017056;28;20905;-93
2021/09/11 05:50:20;;;;;;;20.20;11.82;;;17.20;92.60;;;;;;5034235;28;20405;-92
2021/09/11 05:52:45;;;;;;;16.77;10.53;;;17.10;92.60;;;;;;5017038;28;20413;-93
2021/09/11 05:55:11;;;;;;;18.90;10.45;;;17.00;92.10;;;;;;5016777;28;20768;-91
2021/09/11 05:57:36;;;;;;;13.40;9.47;;;17.10;92.40;;;;;;5017121;28;20391;-93
2021/09/11 06:00:04;;;;;;;17.10;9.25;;;17.10;92.10;;;;;;5016877;28;20875;-93
2021/09/11 06:02:29;;;;;;;12.82;8.70;;;16.90;91.80;;;;;;5016507;28;20433;-88
2021/09/11 06:04:55;;;;;;;13.00;8.50;;;17.10;91.60;;;;;;5016846;28;20419;-92
2021/09/11 06:07:21;;;;;;;11.55;8.20;;;17.00;92.30;;;;;;5016694;28;20384;-92
2021/09/11 06:09:46;;;;;;;15.53;8.43;;;17.10;91.50;;;;;;5034089;28;20470;-88
2021/09/11 06:12:12;;;;;;;13.93;7.90;;;17.10;91.50;;;;;;5016224;28;20471;-92
2021/09/11 06:14:39;;;;;;;14.03;7.63;;;17.10;91.50;;;;;;5033004;28;20442;-90
2021/09/11 06:17:06;;;;;;;14.57;6.80;;;17.20;91.70;;;;;;5016432;28;20391;-91
2021/09/11 06:19:33;;;;;;;11.70;7.13;;;17.00;91.00;;;;;;5016739;28;20445;-91
2021/09/11 06:21:59;;;;;;;12.55;7.38;;;17.00;91.80;;;;;;5016582;28;20456;-90
2021/09/11 06:24:24;;;;;;;11.32;7.07;;;17.10;91.70;;;;;;5016372;28;20802;-92
2021/09/11 06:26:50;;;;;;;11.55;7.05;;;17.00;91.70;;;;;;5016488;28;20470;-91
2021/09/11 06:29:16;;;;;;;13.55;7.00;;;17.10;91.50;;;;;;5033653;28;20534;-90
2021/09/11 06:31:41;;;;;;;9.50;6.47;;;17.20;91.60;;;;;;5015973;28;20749;-88
2021/09/11 06:34:07;;;;;;;11.48;6.72;;;17.10;91.50;;;;;;5015971;28;20382;-91
2021/09/11 06:36:32;;;;;;;11.27;6.60;;;17.10;91.20;;;;;;5016165;28;20425;-91
2021/09/11 06:38:58;;;;;;;11.57;6.22;;;17.20;91.30;;;;;;5033793;28;20380;-90
2021/09/11 06:41:23;;;;;;;11.73;5.90;;;17.10;91.30;;;;;;5016353;28;20422;-92
2021/09/11 06:43:49;;;;;;;10.97;5.70;;;17.10;91.30;;;;;;5033041;28;20435;-91
2021/09/11 06:46:15;;;;;;;10.53;5.60;;;17.00;91.20;;;;;;5035327;28;20381;-90
2021/09/11 06:48:40;;;;;;;9.33;5.43;;;17.00;91.10;;;;;;5035230;28;20429;-90
2021/09/11 06:51:06;;;;;;;7.32;4.60;;;17.10;91.00;;;;;;5035690;28;20401;-90
2021/09/11 06:53:31;;;;;;;8.47;4.50;;;17.00;90.50;;;;;;5035874;28;20443;-88
2021/09/11 06:55:57;;;;;;;6.70;4.20;;;17.00;89.60;;;;;;5035402;28;20429;-90
2021/09/11 06:58:22;;;;;;;9.60;4.50;;;17.00;90.00;;;;;;5035642;28;20420;-88
2021/09/11 07:00:48;;;;;;;7.60;4.10;;;17.10;89.90;;;;;;5035698;28;20413;-89
2021/09/11 07:03:14;;;;;;;7.17;4.10;;;17.00;89.50;;;;;;5035531;28;20417;-94
2021/09/11 07:05:40;;;;;;;7.97;3.63;;;17.00;89.60;;;;;;5035484;28;20863;-89
2021/09/11 07:08:06;;;;;;;6.97;3.47;;;16.90;89.40;;;;;;5035504;28;20434;-90
2021/09/11 07:10:31;;;;;;;9.70;4.03;;;16.90;89.50;;;;;;5035335;28;20377;-89
2021/09/11 07:12:57;;;;;;;7.18;3.50;;;16.90;89.40;;;;;;5034478;28;20490;-91
2021/09/11 07:15:22;;;;;;;7.50;3.90;;;17.00;89.60;;;;;;5035230;28;20882;-90
2021/09/11 07:17:48;;;;;;;6.13;3.75;;;17.00;89.60;;;;;;5035076;28;20742;-90
2021/09/11 07:20:14;;;;;;;9.73;3.88;;;17.00;89.20;;;;;;5035375;28;20386;-90
2021/09/11 07:22:39;;;;;;;6.17;3.80;;;17.00;89.20;;;;;;5035099;28;20386;-90
2021/09/11 07:25:05;;;;;;;6.32;3.33;;;17.10;89.00;;;;;;5035194;28;20834;-90
2021/09/11 07:27:31;;;;;;;9.68;3.70;;;17.10;88.20;;;;;;5035246;28;20472;-90
2021/09/11 07:29:58;;;;;;;5.88;3.33;;;17.20;89.00;;;;;;5034942;28;20421;-90
2021/09/11 07:32:26;;;;;;;4.50;2.80;;;17.30;89.00;;;;;;5035072;28;20904;-90
2021/09/11 07:34:51;;;;;;;243.38;18.67;;;17.30;88.70;;;;;;5035255;28;20455;-92
2021/09/11 07:37:17;;;;;;;7.75;3.47;;;17.30;88.90;;;;;;5034677;28;20386;-91
2021/09/11 07:39:42;;;;;;;55.33;10.10;;;17.40;89.00;;;;;;5034879;28;20378;-90
2021/09/11 07:42:08;;;;;;;5.53;3.30;;;17.40;88.70;;;;;;5034727;28;20888;-92
2021/09/11 07:44:33;;;;;;;9.95;3.90;;;17.30;88.10;;;;;;5034842;28;20525;-92
2021/09/11 07:46:59;;;;;;;10.60;4.10;;;17.30;88.90;;;;;;5034526;28;20933;-91
2021/09/11 07:49:25;;;;;;;9.07;3.70;;;17.30;88.40;;;;;;5034602;28;20430;-93
2021/09/11 07:51:50;;;;;;;8.67;3.60;;;17.30;89.20;;;;;;5034281;28;20416;-91
2021/09/11 07:54:16;;;;;;;10.43;3.70;;;17.30;89.10;;;;;;5034535;28;20402;-91
2021/09/11 07:56:42;;;;;;;10.27;3.47;;;17.30;88.70;;;;;;5034600;28;20401;-93
2021/09/11 07:59:08;;;;;;;7.93;4.00;;;17.30;88.90;;;;;;5032266;28;20388;-90
2021/09/11 08:01:34;;;;;;;24.05;6.45;;;17.30;89.10;;;;;;5033622;28;20432;-94
2021/09/11 08:04:00;;;;;;;10.57;4.33;;;17.40;89.30;;;;;;5049519;28;20471;-90
2021/09/11 08:06:26;;;;;;;10.70;3.47;;;17.30;87.60;;;;;;5034200;28;20385;-90
2021/09/11 08:08:51;;;;;;;12.20;4.27;;;17.30;88.70;;;;;;5034850;28;20472;-92
2021/09/11 08:11:17;;;;;;;7.20;3.30;;;17.30;88.60;;;;;;5034354;28;20402;-91
2021/09/11 08:13:43;;;;;;;12.63;4.70;;;17.30;88.10;;;;;;5050237;28;20396;-91
2021/09/11 08:16:10;;;;;;;12.73;3.80;;;17.30;88.70;;;;;;5051064;28;20883;-92
2021/09/11 08:18:36;;;;;;;9.63;3.70;;;17.30;88.20;;;;;;5034509;28;20426;-91
2021/09/11 08:21:03;;;;;;;9.57;3.50;;;17.40;88.10;;;;;;5052003;28;20377;-91
2021/09/11 08:23:29;;;;;;;5.65;3.20;;;17.40;87.90;;;;;;5034660;28;20447;-91
2021/09/11 08:25:55;;;;;;;6.43;3.35;;;17.40;88.10;;;;;;5038271;28;20373;-90
2021/09/11 08:28:20;;;;;;;149.87;18.37;;;17.50;87.50;;;;;;5038722;28;20758;-91
2021/09/11 08:30:47;;;;;;;7.93;3.45;;;17.60;88.60;;;;;;5038559;28;20385;-91
2021/09/11 08:33:15;;;;;;;35.40;5.70;;;17.70;88.40;;;;;;5038256;28;20953;-90
2021/09/11 08:35:42;;;;;;;6.38;2.95;;;17.80;88.00;;;;;;5038478;28;20893;-92
2021/09/11 08:38:08;;;;;;;6.28;3.03;;;17.90;86.20;;;;;;5038056;28;20400;-91
2021/09/11 08:40:34;;;;;;;7.22;3.00;;;17.90;86.20;;;;;;5038203;28;20730;-91
2021/09/11 08:43:01;;;;;;;7.85;2.78;;;18.00;86.70;;;;;;5038163;28;20390;-90
2021/09/11 08:45:27;;;;;;;5.28;2.63;;;18.20;86.80;;;;;;5038084;28;20797;-93
2021/09/11 08:47:53;;;;;;;77.47;7.35;;;18.30;85.70;;;;;;5038089;28;20482;-90
2021/09/11 08:50:19;;;;;;;5.13;2.10;;;18.50;85.10;;;;;;5038006;28;20412;-89
2021/09/11 08:52:47;;;;;;;2.83;1.77;;;18.90;82.50;;;;;;5038252;28;20476;-90
2021/09/11 08:55:15;;;;;;;5.07;2.10;;;18.80;81.90;;;;;;5037870;28;20405;-90
2021/09/11 08:57:56;;;;;;;3.80;2.17;;;18.80;83.50;;;;;;5038029;28;20886;-90
2021/09/11 09:00:48;;;;;;;5.32;1.90;;;18.90;81.70;;;;;;5055583;28;20415;-90
2021/09/11 09:03:30;;;;;;;32.10;7.18;;;18.90;83.50;;;;;;5037886;28;20394;-91
2021/09/11 09:06:16;;;;;;;4.05;1.80;;;18.70;82.30;;;;;;5055620;28;20428;-92
2021/09/11 09:08:42;;;;;;;4.60;1.63;;;18.60;81.80;;;;;;5037772;28;20400;-85
2021/09/11 09:11:18;;;;;;;3.65;1.50;;;18.50;80.60;;;;;;5037549;28;20830;-88
2021/09/11 09:14:08;;;;;;;4.03;1.50;;;18.40;81.00;;;;;;5055393;28;20436;-89
2021/09/11 09:16:44;;;;;;;3.88;1.50;;;18.30;81.00;;;;;;5055494;28;20416;-90
2021/09/11 09:19:15;;;;;;;6.10;1.80;;;18.40;83.10;;;;;;5037456;28;20393;-90
2021/09/11 09:21:42;;;;;;;4.40;2.00;;;18.40;81.70;;;;;;5037648;28;20762;-90
2021/09/11 09:24:11;;;;;;;5.07;1.50;;;18.30;81.60;;;;;;5037467;28;20735;-91
2021/09/11 09:26:56;;;;;;;3.20;1.73;;;18.40;83.20;;;;;;5055105;28;20385;-90
2021/09/11 09:29:22;;;;;;;2.90;1.90;;;18.40;83.60;;;;;;5037281;28;20401;-93
2021/09/11 09:31:51;;;;;;;3.10;1.40;;;18.40;81.40;;;;;;5053768;28;20754;-92
2021/09/11 09:34:36;;;;;;;11.38;2.35;;;18.30;81.10;;;;;;5037133;28;20492;-94
2021/09/11 09:37:06;;;;;;;12.60;6.25;;;18.40;82.50;;;;;;5054135;28;20389;-94
2021/09/11 09:39:59;;;;;;;4.10;1.77;;;18.40;81.70;;;;;;5037387;28;20401;-92
2021/09/11 09:42:28;;;;;;;2.78;1.50;;;18.30;81.40;;;;;;5033337;28;20484;-92
2021/09/11 09:44:54;;;;;;;3.80;1.83;;;18.40;82.30;;;;;;5037007;28;20385;-89
2021/09/11 09:47:23;;;;;;;3.83;1.60;;;18.30;79.70;;;;;;5050276;28;20823;-90
2021/09/11 09:50:10;;;;;;;4.95;1.60;;;18.30;80.50;;;;;;5017450;28;20440;-87
2021/09/11 09:52:37;;;;;;;7.85;2.72;;;18.30;80.60;;;;;;5034490;28;20481;-92
2021/09/11 09:55:04;;;;;;;3.10;1.70;;;18.40;81.20;;;;;;5034761;28;20391;-89
2021/09/11 09:57:30;;;;;;;6.88;2.60;;;18.50;82.20;;;;;;5016885;28;20836;-89
2021/09/11 09:59:58;;;;;;;4.20;1.65;;;18.70;83.10;;;;;;5017457;28;20399;-88
2021/09/11 10:02:24;;;;;;;4.95;1.95;;;18.70;81.00;;;;;;5017375;28;20402;-89
2021/09/11 10:04:51;;;;;;;3.87;1.30;;;18.80;81.30;;;;;;5017246;28;20418;-94
2021/09/11 10:07:21;;;;;;;15.57;1.85;;;18.90;80.70;;;;;;5034874;28;20832;-91
2021/09/11 10:09:49;;;;;;;3.70;1.70;;;19.00;80.70;;;;;;5016898;28;20400;-90
2021/09/11 10:12:48;;;;;;;4.30;1.60;;;18.90;81.20;;;;;;5016626;28;20403;-90
2021/09/11 10:15:27;;;;;;;4.30;1.60;;;19.00;81.00;;;;;;4974253;28;20410;-92
2021/09/11 10:17:54;;;;;;;2.90;1.70;;;19.00;79.40;;;;;;5016892;28;20391;-93
2021/09/11 10:20:20;;;;;;;2.97;1.73;;;19.10;79.70;;;;;;5017013;28;20394;-90
2021/09/11 10:23:06;;;;;;;3.60;1.42;;;19.00;77.00;;;;;;5016798;28;20387;-89
2021/09/11 10:25:44;;;;;;;3.22;1.65;;;18.80;77.60;;;;;;5016539;28;20387;-89
2021/09/11 10:28:18;;;;;;;3.10;1.70;;;18.80;79.10;;;;;;5016630;28;20387;-90
2021/09/11 10:31:12;;;;;;;3.47;1.70;;;18.80;80.70;;;;;;5034219;28;20394;-90
2021/09/11 10:33:48;;;;;;;2.80;1.73;;;18.80;79.70;;;;;;5016167;28;20417;-89
2021/09/11 10:36:41;;;;;;;4.45;1.65;;;18.80;79.50;;;;;;5016346;28;20907;-89
2021/09/11 10:39:09;;;;;;;2.58;1.70;;;18.90;79.60;;;;;;5049446;28;20395;-88
2021/09/11 10:41:34;;;;;;;4.35;2.10;;;19.10;79.80;;;;;;5033680;28;20431;-87
2021/09/11 10:44:07;;;;;;;3.17;2.05;;;19.30;79.10;;;;;;5015997;28;20422;-88
2021/09/11 10:46:50;;;;;;;5.03;2.08;;;19.40;78.10;;;;;;5016201;28;20431;-89
2021/09/11 10:49:34;;;;;;;2.90;1.95;;;19.20;78.30;;;;;;5021997;28;20512;-88
2021/09/11 10:52:08;;;;;;;5.32;1.80;;;19.10;77.90;;;;;;5035682;28;20505;-88
2021/09/11 10:54:40;;;;;;;3.83;1.92;;;19.10;79.50;;;;;;5052061;28;20948;-90
2021/09/11 10:57:15;;;;;;;7.35;2.17;;;19.10;79.30;;;;;;5035372;28;20416;-88
2021/09/11 10:59:48;;;;;;;4.40;2.20;;;19.30;79.00;;;;;;5035454;28;20475;-88
2021/09/11 11:02:23;;;;;;;6.78;1.80;;;19.20;80.20;;;;;;5035736;28;20484;-88
2021/09/11 11:04:49;;;;;;;4.43;2.33;;;19.30;79.80;;;;;;5035460;28;20401;-86
2021/09/11 11:07:30;;;;;;;4.67;1.70;;;19.30;78.10;;;;;;5035230;28;20402;-89
2021/09/11 11:10:06;;;;;;;4.03;1.80;;;19.30;78.90;;;;;;5053166;28;20954;-88
2021/09/11 11:12:37;;;;;;;4.20;1.90;;;19.20;79.40;;;;;;5035579;28;20468;-89
2021/09/11 11:15:07;;;;;;;5.35;1.80;;;19.30;79.80;;;;;;5035228;28;20455;-88
2021/09/11 11:17:47;;;;;;;3.53;1.85;;;19.30;78.90;;;;;;5035035;28;20398;-87
2021/09/11 11:20:13;;;;;;;4.07;1.70;;;19.30;79.00;;;;;;5035049;28;20888;-89
2021/09/11 11:22:42;;;;;;;5.10;2.00;;;19.30;79.20;;;;;;5052791;28;20488;-87
2021/09/11 11:25:14;;;;;;;2.80;1.70;;;19.30;80.80;;;;;;5035083;28;20469;-87
2021/09/11 11:27:40;;;;;;;4.65;2.20;;;19.30;79.20;;;;;;5034702;28;20389;-88
2021/09/11 11:30:08;;;;;;;7.53;2.17;;;19.20;78.90;;;;;;5034971;28;20401;-88
2021/09/11 11:32:38;;;;;;;6.95;1.88;;;19.10;79.60;;;;;;5034686;28;20417;-88
2021/09/11 11:35:06;;;;;;;3.50;1.80;;;19.20;79.70;;;;;;5034822;28;20386;-86
2021/09/11 11:37:34;;;;;;;3.75;2.05;;;19.30;80.40;;;;;;5034585;28;20386;-88
2021/09/11 11:40:08;;;;;;;6.63;2.13;;;19.30;79.20;;;;;;5034508;28;20392;-88
2021/09/11 11:42:34;;;;;;;3.28;1.90;;;19.30;79.20;;;;;;5034775;28;20397;-89
2021/09/11 11:45:03;;;;;;;4.28;2.00;;;19.30;79.90;;;;;;5034958;28;20874;-88
2021/09/11 11:48:07;;;;;;;6.28;2.05;;;19.40;78.90;;;;;;5034828;28;20385;-89
2021/09/11 11:50:39;;;;;;;2.75;1.90;;;19.40;79.00;;;;;;5034967;28;20780;-90
2021/09/11 11:53:14;;;;;;;4.20;2.15;;;19.50;80.90;;;;;;5034756;28;20409;-89
2021/09/11 11:55:45;;;;;;;5.15;2.00;;;19.60;80.30;;;;;;5052875;28;20409;-89
2021/09/11 11:58:17;;;;;;;3.47;2.17;;;19.50;79.60;;;;;;5052636;28;20382;-88
2021/09/11 12:00:48;;;;;;;5.30;2.03;;;19.40;79.40;;;;;;5052382;28;20469;-88
2021/09/11 12:03:36;;;;;;;5.80;2.85;;;19.50;80.40;;;;;;5034798;28;20481;-87
2021/09/11 12:06:07;;;;;;;5.57;2.22;;;19.50;80.10;;;;;;5034474;28;20509;-89
2021/09/11 12:08:37;;;;;;;4.82;2.03;;;19.50;80.60;;;;;;5052596;28;20378;-88
2021/09/11 12:11:04;;;;;;;5.22;2.33;;;19.40;80.70;;;;;;5034597;28;20497;-88
2021/09/11 12:13:30;;;;;;;4.88;2.00;;;19.50;80.60;;;;;;5034909;28;20430;-87
2021/09/11 12:15:56;;;;;;;3.75;2.30;;;19.50;79.40;;;;;;5035249;28;20413;-88
2021/09/11 12:18:22;;;;;;;6.75;2.40;;;19.70;80.40;;;;;;5035089;28;20394;-88
2021/09/11 12:20:53;;;;;;;4.45;2.20;;;19.70;80.10;;;;;;5034665;28;20447;-89
2021/09/11 12:23:21;;;;;;;6.07;2.20;;;19.80;80.30;;;;;;5034720;28;20459;-88
2021/09/11 12:25:55;;;;;;;3.90;2.20;;;19.80;80.80;;;;;;5051193;28;20409;-90
2021/09/11 12:28:36;;;;;;;8.82;2.20;;;19.90;81.30;;;;;;5034901;28;20476;-87
2021/09/11 12:31:06;;;;;;;3.08;2.10;;;19.80;79.50;;;;;;5034618;28;20453;-88
2021/09/11 12:33:47;;;;;;;3.97;2.20;;;19.70;79.20;;;;;;5034465;28;20813;-86
2021/09/11 12:36:20;;;;;;;3.73;2.20;;;19.80;80.10;;;;;;5052074;28;20385;-88
2021/09/11 12:38:51;;;;;;;4.18;2.00;;;19.90;80.00;;;;;;5034567;28;20397;-88
2021/09/11 12:41:18;;;;;;;4.40;2.10;;;20.00;79.00;;;;;;5034159;28;20423;-87
2021/09/11 12:43:44;;;;;;;4.30;2.17;;;20.00;78.20;;;;;;5034778;28;20394;-89